Pensacola, FL

7:42 PM CDT on September 02, 2014 (GMT -0500)
Pensacola Naval Air Station | Change Station
CLOSE
Current Station
Airport
Location: Pensacola NAS,
Elevation: 30 ft
Nearby Weather Stations
Active Advisory: Coastal Hazard Statement

Elev 30 ft 30.36 °N, 87.32 °W | Updated 46 minutes ago

Mostly Cloudy
Mostly Cloudy
83 °F
Feels Like 89 °F
N
4
Wind Variable Wind from WSW

Today
High -- | Low -- °F
--% Chance of Precip.
Yesterday
High -- | Low -- °F
Precip. -- in
6:26 AM 7:10 PM
First Quarter, 56% visible
Pressure 30.00 in
Visibility 10.0 miles
Clouds Few 2500 ft
Scattered Clouds 10000 ft
Mostly Cloudy 25000 ft
Heat Index 89 °F
Dew Point 74 °F
Humidity 74%
Rainfall 0.00 in
Snow Depth Not available.
UV 0 out of 12
Pollen 8.60 out of 12
PM2.5 Good
Flu Activity Not available.
METAR KNPA 022356Z 25003KT 10SM FEW025 SCT100 BKN250 28/23 A2999 RMK AO2 SLP157 T02830233 10328 20283 55004

More Conditions Fewer Conditions

Pressure 30.00 in
Visibility 10.0 miles
Clouds Few 2500 ft
Scattered Clouds 10000 ft
Mostly Cloudy 25000 ft
Heat Index 89 °F
Dew Point 74 °F
Humidity 74%
Rainfall 0.00 in
Snow Depth Not available.
UV 0 out of 12
Pollen 8.60 out of 12
PM2.5 Good
Flu Activity Not available.
METAR KNPA 022356Z 25003KT 10SM FEW025 SCT100 BKN250 28/23 A2999 RMK AO2 SLP157 T02830233 10328 20283 55004

More Conditions Fewer Conditions

10-Day Weather Forecast

Almanac

Astronomy

Sep. 02, 2014 Rise Set
Actual Time 6:26 AM CDT 7:10 PM CDT
Civil Twilight 6:02 AM CDT 7:35 PM CDT
Nautical Twilight 5:33 AM CDT 8:03 PM CDT
Astronomical Twilight 5:03 AM CDT 8:33 PM CDT
Moon 1:41 PM CDT (9/2) No Moon Set
Length of Visible Light 13h 33m
Length of Day
12h 44m
Tomorrow will be 1m 46s shorter.
First Quarter, 56% of the Moon is Illuminated
Today
First Quarter
Sep 8
Full
Sep 15
Last Quarter
Sep 24
New
Oct 1
First Quarter

Today's Extremes

State Highs State Lows

Community

WunderPhotos

Upload Photos

1,749,808 photos uploaded!

Nearby

Air Quality

  Air Quality AQ Index Pollutant
Yesterday Moderate
PM2.5
Yesterday Good
OZONE
Current Good
PM2.5
Tuesday Good
OZONE
Tuesday Good
PM2.5
Wednesday Moderate
PM2.5
Wednesday Good
OZONE

Snow Depth

Station Depth Elevation
No new snow has been reported.

Earthquake Activity

City Distance Mag. Time & Date
No recent earthquake activity has been reported nearby.
Minimum magnitude displayed is 2.5.

Coastal Water Temperatures

Place Temperature
No Stations Reporting

Nearby Weather Stations